Time;durP1;ratioP1;P1;durP2;ratioP2;P2;SDS_P1;SDS_P2;PMS_P1;PMS_P2;Temp;Humidity;BMP_temperature;BMP_pressure;BME280_temperature;BME280_humidity;BME280_pressure;Samples;Min_cycle;Max_cycle;Signal;HPM_P1;HPM_P2
2023/05/22 00:01:14;;;;;;;;;;;;;;;;;;5035992;28;19944;-84
2023/05/22 00:03:40;;;;;;;;;;;;;;;;;;5050870;28;20015;-84
2023/05/22 00:06:08;;;;;;;;;;;;;;;;;;5029435;28;19998;-84
2023/05/22 00:08:34;;;;;;;;;;;;;;;;;;5034724;28;19913;-84
2023/05/22 00:10:59;;;;;;;;;;;;;;;;;;5035309;28;19948;-85
2023/05/22 00:13:25;;;;;;;;;;;;;;;;;;5034089;28;19920;-84
2023/05/22 00:15:50;;;;;;;;;;;;;;;;;;5033462;28;20343;-83
2023/05/22 00:18:15;;;;;;;;;;;;;;;;;;5034500;28;19893;-84
2023/05/22 00:20:41;;;;;;;;;;;;;;;;;;5034537;28;19913;-84
2023/05/22 00:23:09;;;;;;;;;;;;;;;;;;5034832;28;19921;-84
2023/05/22 00:25:34;;;;;;;;;;;;;;;;;;5033555;28;19909;-83
2023/05/22 00:28:00;;;;;;;;;;;;;;;;;;5034026;28;19924;-84
2023/05/22 00:30:25;;;;;;;;;;;;;;;;;;5032700;28;19920;-84
2023/05/22 00:32:50;;;;;;;;;;;;;;;;;;5032758;28;20333;-84
2023/05/22 00:35:15;;;;;;;;;;;;;;;;;;5034093;28;20003;-83
2023/05/22 00:37:41;;;;;;;;;;;;;;;;;;5050009;28;20343;-84
2023/05/22 00:40:07;;;;;;;;;;;;;;;;;;5034555;28;19999;-84
2023/05/22 00:42:33;;;;;;;;;;;;;;;;;;5033636;28;19916;-83
2023/05/22 00:45:00;;;;;;;;;;;;;;;;;;5034353;28;19935;-83
2023/05/22 00:47:25;;;;;;;;;;;;;;;;;;5038352;28;20015;-83
2023/05/22 00:49:51;;;;;;;;;;;;;;;;;;5033349;28;19917;-83
2023/05/22 00:52:17;;;;;;;;;;;;;;;;;;5035685;28;19919;-83
2023/05/22 00:54:42;;;;;;;;;;;;;;;;;;5020829;28;20051;-83
2023/05/22 00:57:07;;;;;;;;;;;;;;;;;;5037715;28;19913;-83
2023/05/22 00:59:33;;;;;;;;;;;;;;;;;;5079602;28;19909;-83
2023/05/22 01:01:58;;;;;;;;;;;;;;;;;;5052421;28;19979;-83
2023/05/22 01:04:23;;;;;;;;;;;;;;;;;;5037789;28;19909;-83
2023/05/22 01:06:49;;;;;;;;;;;;;;;;;;5038920;28;19913;-83
2023/05/22 01:09:14;;;;;;;;;;;;;;;;;;5023789;28;20388;-83
2023/05/22 01:11:40;;;;;;;;;;;;;;;;;;5052573;28;20371;-83
2023/05/22 01:14:07;;;;;;;;;;;;;;;;;;5036436;28;19935;-83
2023/05/22 01:16:32;;;;;;;;;;;;;;;;;;5039069;28;19913;-84
2023/05/22 01:18:57;;;;;;;;;;;;;;;;;;5037656;28;19916;-83
2023/05/22 01:21:23;;;;;;;;;;;;;;;;;;5051666;28;19963;-84
2023/05/22 01:23:52;;;;;;;;;;;;;;;;;;5038103;28;19913;-84
2023/05/22 01:26:18;;;;;;;;;;;;;;;;;;5036934;28;19913;-83
2023/05/22 01:28:43;;;;;;;;;;;;;;;;;;5036954;28;20389;-84
2023/05/22 01:31:10;;;;;;;;;;;;;;;;;;5036373;28;19913;-84
2023/05/22 01:33:35;;;;;;;;;;;;;;;;;;5038960;28;20372;-83
2023/05/22 01:36:00;;;;;;;;;;;;;;;;;;5049577;28;19929;-84
2023/05/22 01:38:26;;;;;;;;;;;;;;;;;;5039339;28;19913;-84
2023/05/22 01:40:51;;;;;;;;;;;;;;;;;;5038556;28;20016;-84
2023/05/22 01:43:16;;;;;;;;;;;;;;;;;;5041075;28;20368;-84
2023/05/22 01:45:43;;;;;;;;;;;;;;;;;;5040013;28;19920;-84
2023/05/22 01:48:11;;;;;;;;;;;;;;;;;;5023421;28;19909;-84
2023/05/22 01:50:37;;;;;;;;;;;;;;;;;;5040416;28;19966;-84
2023/05/22 01:53:03;;;;;;;;;;;;;;;;;;5039325;28;19913;-84
2023/05/22 01:55:29;;;;;;;;;;;;;;;;;;5038025;28;20386;-84
2023/05/22 01:57:55;;;;;;;;;;;;;;;;;;5038706;28;19908;-84
2023/05/22 02:00:21;;;;;;;;;;;;;;;;;;5037981;28;19928;-83
2023/05/22 02:02:49;;;;;;;;;;;;;;;;;;5039596;28;19912;-84
2023/05/22 02:05:17;;;;;;;;;;;;;;;;;;5043785;28;19928;-84
2023/05/22 02:07:42;;;;;;;;;;;;;;;;;;5043380;28;19951;-84
2023/05/22 02:10:08;;;;;;;;;;;;;;;;;;5038108;28;20400;-84
2023/05/22 02:12:35;;;;;;;;;;;;;;;;;;5040135;28;19909;-84
2023/05/22 02:15:02;;;;;;;;;;;;;;;;;;5039245;28;19913;-83
2023/05/22 02:17:27;;;;;;;;;;;;;;;;;;5041029;28;20245;-84
2023/05/22 02:19:52;;;;;;;;;;;;;;;;;;5037420;28;20437;-85
2023/05/22 02:22:18;;;;;;;;;;;;;;;;;;5038318;28;20044;-84
2023/05/22 02:24:44;;;;;;;;;;;;;;;;;;5055365;28;19920;-84
2023/05/22 02:27:09;;;;;;;;;;;;;;;;;;5039881;28;19916;-84
2023/05/22 02:29:35;;;;;;;;;;;;;;;;;;5035741;28;19913;-84
2023/05/22 02:32:00;;;;;;;;;;;;;;;;;;5036426;28;20027;-84
2023/05/22 02:34:25;;;;;;;;;;;;;;;;;;5053471;28;19963;-84
2023/05/22 02:36:51;;;;;;;;;;;;;;;;;;5036914;28;19925;-83
2023/05/22 02:39:16;;;;;;;;;;;;;;;;;;5054094;28;19997;-84
2023/05/22 02:41:41;;;;;;;;;;;;;;;;;;5054339;28;19908;-85
2023/05/22 02:44:07;;;;;;;;;;;;;;;;;;5046201;28;19973;-83
2023/05/22 02:46:32;;;;;;;;;;;;;;;;;;5064208;28;19916;-84
2023/05/22 02:48:57;;;;;;;;;;;;;;;;;;5035525;28;19912;-86
2023/05/22 02:51:23;;;;;;;;;;;;;;;;;;5052194;28;19916;-84
2023/05/22 02:53:48;;;;;;;;;;;;;;;;;;5035386;28;19920;-85
2023/05/22 02:56:14;;;;;;;;;;;;;;;;;;5035135;28;20356;-84
2023/05/22 02:58:39;;;;;;;;;;;;;;;;;;5067690;28;19917;-84
2023/05/22 03:01:07;;;;;;;;;;;;;;;;;;5036369;28;20291;-84
2023/05/22 03:03:33;;;;;;;;;;;;;;;;;;5034861;28;19923;-85
2023/05/22 03:06:00;;;;;;;;;;;;;;;;;;5036273;28;20011;-84
2023/05/22 03:08:27;;;;;;;;;;;;;;;;;;5036813;28;20292;-85
2023/05/22 03:10:52;;;;;;;;;;;;;;;;;;5060083;28;19913;-84
2023/05/22 03:13:17;;;;;;;;;;;;;;;;;;5035734;28;19939;-84
2023/05/22 03:15:42;;;;;;;;;;;;;;;;;;5038356;28;20003;-83
2023/05/22 03:18:12;;;;;;;;;;;;;;;;;;5035186;28;20022;-84
2023/05/22 03:20:38;;;;;;;;;;;;;;;;;;5031995;28;19916;-84
2023/05/22 03:23:03;;;;;;;;;;;;;;;;;;5055761;28;19918;-84
2023/05/22 03:25:29;;;;;;;;;;;;;;;;;;5031346;28;19909;-84
2023/05/22 03:27:54;;;;;;;;;;;;;;;;;;5049804;28;20295;-84
2023/05/22 03:30:19;;;;;;;;;;;;;;;;;;5018164;28;19909;-85
2023/05/22 03:32:55;;;;;;;;;;;;;;;;;;5039533;28;19917;-84
2023/05/22 03:35:21;;;;;;;;;;;;;;;;;;5057252;28;19996;-84
2023/05/22 03:37:46;;;;;;;;;;;;;;;;;;5033253;28;20368;-85
2023/05/22 03:40:12;;;;;;;;;;;;;;;;;;5054966;28;19920;-84
2023/05/22 03:42:37;;;;;;;;;;;;;;;;;;5052468;28;19913;-84
2023/05/22 03:45:03;;;;;;;;;;;;;;;;;;5046315;28;19913;-85
2023/05/22 03:47:28;;;;;;;;;;;;;;;;;;5051729;28;19941;-83
2023/05/22 03:49:53;;;;;;;;;;;;;;;;;;5051354;28;19958;-83
2023/05/22 03:52:20;;;;;;;;;;;;;;;;;;5052169;28;20020;-84
2023/05/22 03:54:45;;;;;;;;;;;;;;;;;;5038355;28;19952;-84
2023/05/22 03:57:11;;;;;;;;;;;;;;;;;;5036107;28;20033;-85
2023/05/22 03:59:36;;;;;;;;;;;;;;;;;;5035375;28;19971;-85
2023/05/22 04:02:01;;;;;;;;;;;;;;;;;;5054034;28;20364;-84
2023/05/22 04:04:27;;;;;;;;;;;;;;;;;;5041310;28;19913;-84
2023/05/22 04:06:52;;;;;;;;;;;;;;;;;;5054657;28;20372;-85
2023/05/22 04:09:18;;;;;;;;;;;;;;;;;;5051774;28;20394;-85
2023/05/22 04:11:43;;;;;;;;;;;;;;;;;;5046223;28;19916;-85
2023/05/22 04:14:08;;;;;;;;;;;;;;;;;;5081265;28;19913;-84
2023/05/22 04:16:34;;;;;;;;;;;;;;;;;;5051100;28;19920;-85
2023/05/22 04:19:02;;;;;;;;;;;;;;;;;;5049282;28;19913;-85
2023/05/22 04:21:27;;;;;;;;;;;;;;;;;;5051776;28;19963;-85
2023/05/22 04:23:53;;;;;;;;;;;;;;;;;;5035003;28;19917;-85
2023/05/22 04:26:19;;;;;;;;;;;;;;;;;;5017778;28;19916;-85
2023/05/22 04:28:44;;;;;;;;;;;;;;;;;;5038292;28;20032;-84
2023/05/22 04:31:11;;;;;;;;;;;;;;;;;;5038759;28;20010;-84
2023/05/22 04:33:37;;;;;;;;;;;;;;;;;;5038886;28;20000;-85
2023/05/22 04:36:03;;;;;;;;;;;;;;;;;;5039577;28;20410;-84
2023/05/22 04:38:29;;;;;;;;;;;;;;;;;;5038977;28;19920;-83
2023/05/22 04:40:54;;;;;;;;;;;;;;;;;;5037094;28;19909;-84
2023/05/22 04:43:21;;;;;;;;;;;;;;;;;;5038500;28;19923;-85
2023/05/22 04:45:47;;;;;;;;;;;;;;;;;;5039215;28;20314;-83
2023/05/22 04:48:12;;;;;;;;;;;;;;;;;;5039670;28;19956;-83
2023/05/22 04:50:37;;;;;;;;;;;;;;;;;;5049825;28;19915;-83
2023/05/22 04:53:04;;;;;;;;;;;;;;;;;;5039907;28;19912;-84
2023/05/22 04:55:32;;;;;;;;;;;;;;;;;;5040087;28;19931;-83
2023/05/22 04:57:58;;;;;;;;;;;;;;;;;;5042929;28;19913;-85
2023/05/22 05:00:25;;;;;;;;;;;;;;;;;;5040506;28;19909;-85
2023/05/22 05:02:50;;;;;;;;;;;;;;;;;;5041904;28;19926;-88
2023/05/22 05:05:16;;;;;;;;;;;;;;;;;;5037901;28;19912;-89
2023/05/22 05:07:42;;;;;;;;;;;;;;;;;;5041049;28;20358;-82
2023/05/22 05:10:07;;;;;;;;;;;;;;;;;;5043008;28;19901;-82
2023/05/22 05:12:33;;;;;;;;;;;;;;;;;;5049457;28;19912;-83
2023/05/22 05:14:59;;;;;;;;;;;;;;;;;;5036054;28;20350;-86
2023/05/22 05:17:24;;;;;;;;;;;;;;;;;;5045553;28;20406;-82
2023/05/22 05:19:49;;;;;;;;;;;;;;;;;;5040500;28;19916;-82
2023/05/22 05:22:15;;;;;;;;;;;;;;;;;;5042082;28;19963;-86
2023/05/22 05:24:40;;;;;;;;;;;;;;;;;;5037253;28;19913;-87
2023/05/22 05:27:05;;;;;;;;;;;;;;;;;;5037234;28;20387;-83
2023/05/22 05:29:31;;;;;;;;;;;;;;;;;;5037591;28;19940;-84
2023/05/22 05:32:02;;;;;;;;;;;;;;;;;;5035958;28;19924;-85
2023/05/22 05:34:44;;;;;;;;;;;;;;;;;;5036835;28;20018;-85
2023/05/22 05:37:22;;;;;;;;;;;;;;;;;;5022003;28;20357;-87
2023/05/22 05:39:48;;;;;;;;;;;;;;;;;;5036464;28;19913;-87
2023/05/22 05:42:13;;;;;;;;;;;;;;;;;;5037120;28;19913;-86
2023/05/22 05:44:39;;;;;;;;;;;;;;;;;;5035948;28;19924;-87
2023/05/22 05:47:05;;;;;;;;;;;;;;;;;;5039637;28;19909;-87
2023/05/22 05:49:31;;;;;;;;;;;;;;;;;;5036561;28;20285;-87
2023/05/22 05:51:56;;;;;;;;;;;;;;;;;;5039593;28;19916;-87
2023/05/22 05:54:25;;;;;;;;;;;;;;;;;;5038200;28;19947;-87
2023/05/22 05:56:51;;;;;;;;;;;;;;;;;;5038672;28;20288;-86
2023/05/22 05:59:16;;;;;;;;;;;;;;;;;;5035322;28;19913;-86
2023/05/22 06:02:00;;;;;;;;;;;;;;;;;;5038385;28;20039;-86
2023/05/22 06:04:29;;;;;;;;;;;;;;;;;;5039655;28;19913;-86
2023/05/22 06:06:55;;;;;;;;;;;;;;;;;;5042517;28;19916;-84
2023/05/22 06:09:25;;;;;;;;;;;;;;;;;;5043352;28;19952;-84
2023/05/22 06:12:13;;;;;;;;;;;;;;;;;;5036489;28;19945;-84
2023/05/22 06:14:41;;;;;;;;;;;;;;;;;;5028772;28;19913;-85
2023/05/22 06:17:08;;;;;;;;;;;;;;;;;;5042800;28;19958;-85
2023/05/22 06:19:35;;;;;;;;;;;;;;;;;;5048241;28;19977;-85
2023/05/22 06:22:00;;;;;;;;;;;;;;;;;;5045265;28;19917;-85
2023/05/22 06:24:26;;;;;;;;;;;;;;;;;;5034432;28;19913;-85
2023/05/22 06:26:52;;;;;;;;;;;;;;;;;;5035201;28;19913;-85
2023/05/22 06:29:17;;;;;;;;;;;;;;;;;;5035834;28;19920;-85
2023/05/22 06:31:44;;;;;;;;;;;;;;;;;;5034578;28;19889;-85
2023/05/22 06:34:11;;;;;;;;;;;;;;;;;;5038908;28;19936;-85
2023/05/22 06:36:36;;;;;;;;;;;;;;;;;;5040980;28;19928;-86
2023/05/22 06:39:01;;;;;;;;;;;;;;;;;;5050346;28;19913;-85
2023/05/22 06:41:50;;;;;;;;;;;;;;;;;;5029467;28;19913;-85
2023/05/22 06:44:15;;;;;;;;;;;;;;;;;;5045223;28;19913;-85
2023/05/22 06:46:41;;;;;;;;;;;;;;;;;;5019944;28;19920;-85
2023/05/22 06:49:08;;;;;;;;;;;;;;;;;;5025927;28;19913;-85
2023/05/22 06:51:42;;;;;;;;;;;;;;;;;;5035883;28;19931;-85
2023/05/22 06:54:11;;;;;;;;;;;;;;;;;;5036463;28;19940;-85
2023/05/22 06:56:36;;;;;;;;;;;;;;;;;;5042433;28;19959;-85
2023/05/22 06:59:05;;;;;;;;;;;;;;;;;;5037926;28;19943;-85
2023/05/22 07:01:48;;;;;;;;;;;;;;;;;;5035741;28;20371;-85
2023/05/22 07:04:32;;;;;;;;;;;;;;;;;;5036624;28;20009;-85
2023/05/22 07:07:00;;;;;;;;;;;;;;;;;;5041546;28;19913;-85
2023/05/22 07:09:26;;;;;;;;;;;;;;;;;;5041873;28;19909;-85
2023/05/22 07:11:52;;;;;;;;;;;;;;;;;;5041527;28;19913;-85
2023/05/22 07:14:17;;;;;;;;;;;;;;;;;;5035888;28;20394;-85
2023/05/22 07:16:43;;;;;;;;;;;;;;;;;;5036762;28;19935;-85
2023/05/22 07:19:10;;;;;;;;;;;;;;;;;;5042136;28;19913;-85
2023/05/22 07:21:36;;;;;;;;;;;;;;;;;;5043443;28;19912;-85
2023/05/22 07:24:07;;;;;;;;;;;;;;;;;;5033823;28;19959;-85
2023/05/22 07:26:33;;;;;;;;;;;;;;;;;;5033350;28;19917;-85
2023/05/22 07:29:04;;;;;;;;;;;;;;;;;;5035185;28;19990;-85
2023/05/22 07:31:33;;;;;;;;;;;;;;;;;;5036060;28;19913;-85
2023/05/22 07:33:59;;;;;;;;;;;;;;;;;;5033294;28;19977;-85
2023/05/22 07:36:27;;;;;;;;;;;;;;;;;;5034965;28;19928;-84
2023/05/22 07:38:52;;;;;;;;;;;;;;;;;;5037748;28;19909;-84
2023/05/22 07:41:18;;;;;;;;;;;;;;;;;;5044042;28;19920;-84
2023/05/22 07:43:43;;;;;;;;;;;;;;;;;;5067425;28;19913;-85
2023/05/22 07:46:11;;;;;;;;;;;;;;;;;;5044949;28;19916;-85
2023/05/22 07:48:46;;;;;;;;;;;;;;;;;;5064699;28;19915;-85
2023/05/22 07:51:12;;;;;;;;;;;;;;;;;;5036075;28;19913;-85
2023/05/22 07:53:38;;;;;;;;;;;;;;;;;;5033034;28;20258;-85
2023/05/22 07:56:03;;;;;;;;;;;;;;;;;;5033802;28;19913;-85
2023/05/22 07:58:30;;;;;;;;;;;;;;;;;;5039191;28;20352;-86
2023/05/22 08:00:55;;;;;;;;;;;;;;;;;;5020330;28;19913;-86
2023/05/22 08:03:21;;;;;;;;;;;;;;;;;;5040262;28;20007;-86
2023/05/22 08:05:46;;;;;;;;;;;;;;;;;;5036589;28;20265;-85
2023/05/22 08:08:11;;;;;;;;;;;;;;;;;;5038087;28;19916;-86
2023/05/22 08:10:37;;;;;;;;;;;;;;;;;;5038490;28;20359;-86
2023/05/22 08:13:05;;;;;;;;;;;;;;;;;;5034194;28;20372;-86
2023/05/22 08:15:30;;;;;;;;;;;;;;;;;;5033992;28;19913;-86
2023/05/22 08:17:55;;;;;;;;;;;;;;;;;;5034231;28;19915;-86
2023/05/22 08:20:21;;;;;;;;;;;;;;;;;;5033012;28;20000;-85
2023/05/22 08:22:46;;;;;;;;;;;;;;;;;;5038359;28;20261;-85
2023/05/22 08:25:11;;;;;;;;;;;;;;;;;;5032472;28;19913;-85
2023/05/22 08:27:37;;;;;;;;;;;;;;;;;;5032831;28;19909;-86
2023/05/22 08:30:03;;;;;;;;;;;;;;;;;;5033552;28;19967;-85
2023/05/22 08:32:28;;;;;;;;;;;;;;;;;;5034792;28;19916;-85
2023/05/22 08:34:54;;;;;;;;;;;;;;;;;;5033132;28;20286;-85
2023/05/22 08:37:20;;;;;;;;;;;;;;;;;;5040578;28;20411;-86
2023/05/22 08:39:45;;;;;;;;;;;;;;;;;;5041585;28;19919;-85
2023/05/22 08:42:10;;;;;;;;;;;;;;;;;;5035955;28;19917;-85
2023/05/22 08:44:36;;;;;;;;;;;;;;;;;;5034250;28;20315;-85
2023/05/22 08:47:03;;;;;;;;;;;;;;;;;;5016271;28;19940;-86
2023/05/22 08:49:28;;;;;;;;;;;;;;;;;;5032608;28;20335;-85
2023/05/22 08:51:53;;;;;;;;;;;;;;;;;;5039260;28;19909;-86
2023/05/22 08:54:19;;;;;;;;;;;;;;;;;;5052356;28;19913;-85
2023/05/22 08:56:44;;;;;;;;;;;;;;;;;;5034499;28;19980;-85
2023/05/22 08:59:10;;;;;;;;;;;;;;;;;;5033544;28;20403;-85
2023/05/22 09:01:35;;;;;;;;;;;;;;;;;;5031350;28;19909;-86
2023/05/22 09:04:00;;;;;;;;;;;;;;;;;;5033598;28;19928;-86
2023/05/22 09:06:27;;;;;;;;;;;;;;;;;;5034331;28;20392;-85
2023/05/22 09:08:53;;;;;;;;;;;;;;;;;;5032730;28;19913;-86
2023/05/22 09:11:18;;;;;;;;;;;;;;;;;;5016073;28;19916;-85
2023/05/22 09:13:43;;;;;;;;;;;;;;;;;;5036011;28;20399;-85
2023/05/22 09:16:09;;;;;;;;;;;;;;;;;;5048799;28;20360;-86
2023/05/22 09:18:35;;;;;;;;;;;;;;;;;;5037160;28;20044;-86
2023/05/22 09:21:01;;;;;;;;;;;;;;;;;;5049180;28;19917;-86
2023/05/22 09:23:27;;;;;;;;;;;;;;;;;;5015464;28;19917;-86
2023/05/22 09:25:52;;;;;;;;;;;;;;;;;;5036479;28;19962;-85
2023/05/22 09:28:19;;;;;;;;;;;;;;;;;;5037667;28;19928;-86
2023/05/22 09:30:44;;;;;;;;;;;;;;;;;;5036611;28;19908;-85
2023/05/22 09:33:11;;;;;;;;;;;;;;;;;;5035696;28;19917;-85
2023/05/22 09:35:38;;;;;;;;;;;;;;;;;;5040828;28;19917;-86
2023/05/22 09:38:03;;;;;;;;;;;;;;;;;;5045895;28;19913;-86
2023/05/22 09:40:29;;;;;;;;;;;;;;;;;;5040384;28;19979;-86
2023/05/22 09:42:54;;;;;;;;;;;;;;;;;;5038263;28;19917;-85
2023/05/22 09:45:19;;;;;;;;;;;;;;;;;;5050071;28;19913;-86
2023/05/22 09:47:45;;;;;;;;;;;;;;;;;;5038539;28;19919;-86
2023/05/22 09:50:11;;;;;;;;;;;;;;;;;;5040181;28;20019;-85
2023/05/22 09:52:36;;;;;;;;;;;;;;;;;;5037936;28;19951;-85
2023/05/22 09:55:02;;;;;;;;;;;;;;;;;;5039992;28;19920;-85
2023/05/22 09:57:27;;;;;;;;;;;;;;;;;;5038746;28;19962;-85
2023/05/22 09:59:53;;;;;;;;;;;;;;;;;;5042717;28;20011;-86
2023/05/22 10:02:18;;;;;;;;;;;;;;;;;;5039900;28;20338;-86
2023/05/22 10:04:43;;;;;;;;;;;;;;;;;;5038934;28;19909;-86
2023/05/22 10:07:09;;;;;;;;;;;;;;;;;;5035578;28;20400;-85
2023/05/22 10:09:34;;;;;;;;;;;;;;;;;;5036645;28;19947;-87
2023/05/22 10:12:02;;;;;;;;;;;;;;;;;;5042925;28;19960;-85
2023/05/22 10:14:27;;;;;;;;;;;;;;;;;;5037343;28;19996;-86
2023/05/22 10:16:53;;;;;;;;;;;;;;;;;;5035707;28;19959;-87
2023/05/22 10:19:18;;;;;;;;;;;;;;;;;;5035272;28;19909;-86
2023/05/22 10:21:43;;;;;;;;;;;;;;;;;;5036290;28;19913;-86
2023/05/22 10:24:09;;;;;;;;;;;;;;;;;;5035112;28;19970;-85
2023/05/22 10:26:34;;;;;;;;;;;;;;;;;;5034981;28;20343;-86
2023/05/22 10:28:59;;;;;;;;;;;;;;;;;;5034648;28;20318;-86
2023/05/22 10:31:25;;;;;;;;;;;;;;;;;;5034102;28;20743;-86
2023/05/22 10:34:09;;;;;;;;;;;;;;;;;;5036085;28;19920;-86
2023/05/22 10:36:34;;;;;;;;;;;;;;;;;;5035131;28;19972;-87
2023/05/22 10:38:59;;;;;;;;;;;;;;;;;;5036553;28;19963;-87
2023/05/22 10:41:25;;;;;;;;;;;;;;;;;;5036575;28;19913;-87
2023/05/22 10:43:50;;;;;;;;;;;;;;;;;;5038967;28;20372;-85
2023/05/22 10:46:15;;;;;;;;;;;;;;;;;;5042489;28;20012;-87
2023/05/22 10:48:42;;;;;;;;;;;;;;;;;;5036815;28;19951;-86
2023/05/22 10:51:07;;;;;;;;;;;;;;;;;;5035096;28;19952;-87
2023/05/22 10:53:33;;;;;;;;;;;;;;;;;;5034345;28;19951;-86
2023/05/22 10:56:01;;;;;;;;;;;;;;;;;;5035860;28;19920;-86
2023/05/22 10:58:27;;;;;;;;;;;;;;;;;;5038325;28;19913;-87
2023/05/22 11:00:52;;;;;;;;;;;;;;;;;;5039162;28;20332;-87
2023/05/22 11:03:17;;;;;;;;;;;;;;;;;;5037945;28;19912;-86
2023/05/22 11:05:42;;;;;;;;;;;;;;;;;;5034185;28;20003;-86
2023/05/22 11:08:08;;;;;;;;;;;;;;;;;;5044241;28;19931;-86
2023/05/22 11:10:33;;;;;;;;;;;;;;;;;;5034132;28;19920;-87
2023/05/22 11:12:58;;;;;;;;;;;;;;;;;;5035935;28;19915;-87
2023/05/22 11:15:24;;;;;;;;;;;;;;;;;;5033991;28;19913;-86
2023/05/22 11:17:50;;;;;;;;;;;;;;;;;;5035490;28;19916;-86
2023/05/22 11:20:15;;;;;;;;;;;;;;;;;;5034616;28;19979;-87
2023/05/22 11:22:42;;;;;;;;;;;;;;;;;;5032047;28;19913;-86
2023/05/22 11:25:07;;;;;;;;;;;;;;;;;;5028605;28;20011;-86
2023/05/22 11:27:32;;;;;;;;;;;;;;;;;;5036153;28;19963;-86
2023/05/22 11:29:58;;;;;;;;;;;;;;;;;;5035202;28;19897;-87
2023/05/22 11:32:23;;;;;;;;;;;;;;;;;;5034869;28;19931;-86
2023/05/22 11:34:51;;;;;;;;;;;;;;;;;;5035268;28;19932;-87
2023/05/22 11:37:17;;;;;;;;;;;;;;;;;;5036222;28;19925;-87
2023/05/22 11:39:43;;;;;;;;;;;;;;;;;;5035490;28;20394;-85
2023/05/22 11:42:08;;;;;;;;;;;;;;;;;;5017371;28;20007;-87
2023/05/22 11:44:33;;;;;;;;;;;;;;;;;;5035540;28;19963;-87
2023/05/22 11:46:59;;;;;;;;;;;;;;;;;;5036572;28;20283;-87
2023/05/22 11:49:24;;;;;;;;;;;;;;;;;;5033287;28;19919;-87
2023/05/22 11:51:50;;;;;;;;;;;;;;;;;;5036385;28;19913;-86
2023/05/22 11:54:15;;;;;;;;;;;;;;;;;;5062436;28;19982;-86
2023/05/22 11:56:40;;;;;;;;;;;;;;;;;;5034247;28;19920;-86
2023/05/22 11:59:06;;;;;;;;;;;;;;;;;;5062013;28;19936;-85
2023/05/22 12:01:31;;;;;;;;;;;;;;;;;;5033071;28;19915;-85
2023/05/22 12:03:56;;;;;;;;;;;;;;;;;;5033431;28;19917;-85
2023/05/22 12:06:22;;;;;;;;;;;;;;;;;;5032843;28;19923;-86
2023/05/22 12:08:47;;;;;;;;;;;;;;;;;;5034879;28;20299;-86
2023/05/22 12:11:12;;;;;;;;;;;;;;;;;;5035429;28;19909;-85
2023/05/22 12:13:38;;;;;;;;;;;;;;;;;;5034072;28;19913;-86
2023/05/22 12:16:03;;;;;;;;;;;;;;;;;;5033747;28;19907;-87
2023/05/22 12:18:28;;;;;;;;;;;;;;;;;;5066643;28;19912;-87
2023/05/22 12:20:54;;;;;;;;;;;;;;;;;;5033711;28;19909;-87
2023/05/22 12:23:19;;;;;;;;;;;;;;;;;;5033748;28;19952;-85
2023/05/22 12:25:44;;;;;;;;;;;;;;;;;;5033096;28;19909;-87
2023/05/22 12:28:10;;;;;;;;;;;;;;;;;;5032298;28;20351;-85
2023/05/22 12:30:35;;;;;;;;;;;;;;;;;;5032993;28;20365;-86
2023/05/22 12:33:00;;;;;;;;;;;;;;;;;;5033290;28;19917;-85
2023/05/22 12:35:26;;;;;;;;;;;;;;;;;;5032288;28;19923;-85
2023/05/22 12:37:51;;;;;;;;;;;;;;;;;;5032109;28;19917;-86
2023/05/22 12:40:16;;;;;;;;;;;;;;;;;;5032986;28;19947;-85
2023/05/22 12:42:43;;;;;;;;;;;;;;;;;;5033781;28;19923;-85
2023/05/22 12:45:08;;;;;;;;;;;;;;;;;;5035961;28;20271;-85
2023/05/22 12:47:34;;;;;;;;;;;;;;;;;;5032863;28;20007;-85
2023/05/22 12:49:59;;;;;;;;;;;;;;;;;;5038915;28;19908;-86
2023/05/22 12:52:24;;;;;;;;;;;;;;;;;;5036288;28;19913;-86
2023/05/22 12:54:50;;;;;;;;;;;;;;;;;;5036556;28;19944;-86
2023/05/22 12:57:15;;;;;;;;;;;;;;;;;;5038144;28;19919;-87
2023/05/22 12:59:42;;;;;;;;;;;;;;;;;;5039800;28;19916;-85
2023/05/22 13:02:07;;;;;;;;;;;;;;;;;;5044521;28;19913;-87
2023/05/22 13:04:33;;;;;;;;;;;;;;;;;;5042383;28;19909;-86
2023/05/22 13:06:58;;;;;;;;;;;;;;;;;;5043217;28;19959;-86
2023/05/22 13:09:23;;;;;;;;;;;;;;;;;;5037741;28;19908;-86
2023/05/22 13:11:49;;;;;;;;;;;;;;;;;;5048131;28;19913;-86
2023/05/22 13:14:14;;;;;;;;;;;;;;;;;;5045829;28;19909;-87
2023/05/22 13:16:39;;;;;;;;;;;;;;;;;;5046958;28;20292;-85
2023/05/22 13:19:05;;;;;;;;;;;;;;;;;;5044937;28;19909;-85
2023/05/22 13:21:30;;;;;;;;;;;;;;;;;;5049678;28;19943;-87
2023/05/22 13:23:55;;;;;;;;;;;;;;;;;;5038381;28;19912;-87
2023/05/22 13:26:21;;;;;;;;;;;;;;;;;;5036778;28;19917;-86
2023/05/22 13:28:46;;;;;;;;;;;;;;;;;;5036344;28;19948;-86
2023/05/22 13:31:12;;;;;;;;;;;;;;;;;;5037547;28;19913;-87
2023/05/22 13:33:37;;;;;;;;;;;;;;;;;;5040265;28;19913;-86
2023/05/22 13:36:02;;;;;;;;;;;;;;;;;;5067705;28;19922;-86
2023/05/22 13:38:28;;;;;;;;;;;;;;;;;;5031836;28;20004;-86
2023/05/22 13:40:53;;;;;;;;;;;;;;;;;;5041126;28;20364;-85
2023/05/22 13:43:18;;;;;;;;;;;;;;;;;;5051370;28;19920;-85
2023/05/22 13:45:44;;;;;;;;;;;;;;;;;;5036200;28;19913;-86
2023/05/22 13:48:10;;;;;;;;;;;;;;;;;;5036485;28;19909;-87
2023/05/22 13:50:35;;;;;;;;;;;;;;;;;;5036249;28;19913;-86
2023/05/22 13:53:00;;;;;;;;;;;;;;;;;;5036706;28;19959;-86
2023/05/22 13:55:25;;;;;;;;;;;;;;;;;;5060212;28;19920;-87
2023/05/22 13:57:51;;;;;;;;;;;;;;;;;;5036278;28;20356;-86
2023/05/22 14:00:16;;;;;;;;;;;;;;;;;;5035015;28;19913;-86
2023/05/22 14:02:41;;;;;;;;;;;;;;;;;;5042576;28;19916;-86
2023/05/22 14:05:07;;;;;;;;;;;;;;;;;;5035378;28;20004;-86
2023/05/22 14:07:32;;;;;;;;;;;;;;;;;;5035814;28;20359;-86
2023/05/22 14:09:57;;;;;;;;;;;;;;;;;;5040287;28;20004;-86
2023/05/22 14:12:23;;;;;;;;;;;;;;;;;;5034906;28;19915;-86
2023/05/22 14:14:48;;;;;;;;;;;;;;;;;;5036110;28;19920;-86
2023/05/22 14:17:13;;;;;;;;;;;;;;;;;;5036464;28;19932;-86
2023/05/22 14:19:39;;;;;;;;;;;;;;;;;;5035598;28;19943;-86
2023/05/22 14:22:04;;;;;;;;;;;;;;;;;;5036041;28;19909;-85
2023/05/22 14:24:30;;;;;;;;;;;;;;;;;;5023990;28;19959;-86
2023/05/22 14:26:56;;;;;;;;;;;;;;;;;;5048876;28;19947;-86
2023/05/22 14:29:22;;;;;;;;;;;;;;;;;;5032489;28;20003;-86
2023/05/22 14:31:47;;;;;;;;;;;;;;;;;;5035361;28;20365;-86
2023/05/22 14:34:12;;;;;;;;;;;;;;;;;;5035486;28;19917;-86
2023/05/22 14:36:38;;;;;;;;;;;;;;;;;;5035772;28;19924;-85
2023/05/22 14:39:03;;;;;;;;;;;;;;;;;;5035567;28;19913;-86
2023/05/22 14:41:28;;;;;;;;;;;;;;;;;;5044866;28;19908;-86
2023/05/22 14:43:54;;;;;;;;;;;;;;;;;;5035150;28;19924;-86
2023/05/22 14:46:19;;;;;;;;;;;;;;;;;;5032892;28;20368;-84
2023/05/22 14:48:44;;;;;;;;;;;;;;;;;;5035484;28;20002;-85
2023/05/22 14:51:10;;;;;;;;;;;;;;;;;;5034786;28;19916;-85
2023/05/22 14:53:35;;;;;;;;;;;;;;;;;;5043290;28;19913;-86
2023/05/22 14:56:01;;;;;;;;;;;;;;;;;;5038763;28;20256;-85
2023/05/22 14:58:26;;;;;;;;;;;;;;;;;;5043113;28;19913;-86
2023/05/22 15:00:51;;;;;;;;;;;;;;;;;;5039962;28;19909;-86
2023/05/22 15:03:17;;;;;;;;;;;;;;;;;;5044277;28;19917;-86
2023/05/22 15:05:42;;;;;;;;;;;;;;;;;;5033871;28;19948;-86
2023/05/22 15:08:08;;;;;;;;;;;;;;;;;;5034973;28;19920;-86
2023/05/22 15:10:33;;;;;;;;;;;;;;;;;;5034591;28;19908;-87
2023/05/22 15:12:59;;;;;;;;;;;;;;;;;;5032794;28;19913;-86
2023/05/22 15:15:24;;;;;;;;;;;;;;;;;;5034636;28;19958;-86
2023/05/22 15:17:49;;;;;;;;;;;;;;;;;;5035185;28;19956;-86
2023/05/22 15:20:15;;;;;;;;;;;;;;;;;;5034415;28;19931;-86
2023/05/22 15:22:40;;;;;;;;;;;;;;;;;;5030457;28;20376;-86
2023/05/22 15:25:05;;;;;;;;;;;;;;;;;;5026831;28;20348;-87
2023/05/22 15:27:31;;;;;;;;;;;;;;;;;;5035481;28;19998;-86
2023/05/22 15:29:56;;;;;;;;;;;;;;;;;;5017708;28;19909;-88
2023/05/22 15:32:22;;;;;;;;;;;;;;;;;;5034578;28;19920;-88
2023/05/22 15:34:47;;;;;;;;;;;;;;;;;;5037443;28;19920;-86
2023/05/22 15:37:12;;;;;;;;;;;;;;;;;;5035584;28;19921;-85
2023/05/22 15:39:38;;;;;;;;;;;;;;;;;;5034586;28;20380;-85
2023/05/22 15:42:03;;;;;;;;;;;;;;;;;;5038831;28;19912;-85
2023/05/22 15:44:28;;;;;;;;;;;;;;;;;;5036441;28;19909;-86
2023/05/22 15:46:54;;;;;;;;;;;;;;;;;;5038601;28;20020;-87
2023/05/22 15:49:19;;;;;;;;;;;;;;;;;;5035622;28;19909;-86
2023/05/22 15:51:44;;;;;;;;;;;;;;;;;;5041517;28;19938;-87
2023/05/22 15:54:09;;;;;;;;;;;;;;;;;;5037943;28;19965;-88
2023/05/22 15:56:35;;;;;;;;;;;;;;;;;;5038427;28;19913;-88
2023/05/22 15:59:00;;;;;;;;;;;;;;;;;;5037862;28;19959;-87
2023/05/22 16:01:28;;;;;;;;;;;;;;;;;;5041832;28;19913;-87
2023/05/22 16:03:53;;;;;;;;;;;;;;;;;;5046553;28;20284;-87
2023/05/22 16:06:18;;;;;;;;;;;;;;;;;;5040956;28;20007;-86
2023/05/22 16:08:44;;;;;;;;;;;;;;;;;;5040017;28;20390;-86
2023/05/22 16:11:09;;;;;;;;;;;;;;;;;;5021871;28;19952;-87
2023/05/22 16:13:34;;;;;;;;;;;;;;;;;;5046823;28;19909;-85
2023/05/22 16:16:02;;;;;;;;;;;;;;;;;;5036777;28;20011;-86
2023/05/22 16:18:27;;;;;;;;;;;;;;;;;;5043154;28;19955;-86
2023/05/22 16:20:52;;;;;;;;;;;;;;;;;;5033609;28;20391;-86
2023/05/22 16:23:18;;;;;;;;;;;;;;;;;;5039864;28;20006;-86
2023/05/22 16:25:43;;;;;;;;;;;;;;;;;;5034913;28;20325;-86
2023/05/22 16:28:09;;;;;;;;;;;;;;;;;;5040834;28;19959;-86
2023/05/22 16:30:35;;;;;;;;;;;;;;;;;;5035344;28;19913;-86
2023/05/22 16:33:00;;;;;;;;;;;;;;;;;;5061337;28;20504;-87
2023/05/22 16:35:26;;;;;;;;;;;;;;;;;;4981817;28;1407189;-87
2023/05/22 16:37:51;;;;;;;;;;;;;;;;;;5041141;28;19924;-87